Time;durP1;ratioP1;P1;durP2;ratioP2;P2;SDS_P1;SDS_P2;PMS_P1;PMS_P2;Temp;Humidity;BMP_temperature;BMP_pressure;BME280_temperature;BME280_humidity;BME280_pressure;Samples;Min_cycle;Max_cycle;Signal;HPM_P1;HPM_P2
2024/01/15 00:00:04;;;;;;;50.70;23.13;;;0.80;99.90;;;;;;4939714;28;20485;-79
2024/01/15 00:02:30;;;;;;;25.52;14.07;;;0.80;99.90;;;;;;4942916;28;20528;-79
2024/01/15 00:04:55;;;;;;;55.40;27.17;;;0.80;99.90;;;;;;4944271;28;20122;-79
2024/01/15 00:07:21;;;;;;;23.13;11.27;;;0.80;99.90;;;;;;4943429;28;20063;-79
2024/01/15 00:09:46;;;;;;;28.60;13.90;;;0.80;99.90;;;;;;4941718;28;20057;-80
2024/01/15 00:12:12;;;;;;;54.70;26.35;;;0.90;99.90;;;;;;4941947;28;20653;-79
2024/01/15 00:14:37;;;;;;;44.38;20.08;;;0.80;99.90;;;;;;4943690;28;20046;-79
2024/01/15 00:17:03;;;;;;;39.38;16.83;;;0.80;99.90;;;;;;4939558;28;20046;-80
2024/01/15 00:19:32;;;;;;;31.75;15.93;;;0.80;99.90;;;;;;4928085;28;20580;-80
2024/01/15 00:21:57;;;;;;;43.13;21.42;;;0.80;99.90;;;;;;4930001;28;20599;-81
2024/01/15 00:24:23;;;;;;;39.83;16.00;;;0.80;99.90;;;;;;4929644;28;20042;-80
2024/01/15 00:26:48;;;;;;;28.85;14.32;;;0.80;99.90;;;;;;4941141;28;20113;-80
2024/01/15 00:29:14;;;;;;;38.53;17.73;;;0.80;99.90;;;;;;4954660;28;20039;-80
2024/01/15 00:31:39;;;;;;;42.42;20.58;;;0.80;99.90;;;;;;4927115;28;20070;-80
2024/01/15 00:34:05;;;;;;;44.97;22.60;;;0.90;99.90;;;;;;4909943;28;20131;-81
2024/01/15 00:36:31;;;;;;;25.98;12.43;;;0.90;99.90;;;;;;4928322;28;20070;-81
2024/01/15 00:38:56;;;;;;;28.38;13.85;;;0.80;99.90;;;;;;4944489;28;20034;-82
2024/01/15 00:41:22;;;;;;;36.30;17.63;;;0.90;99.90;;;;;;4945379;28;20161;-81
2024/01/15 00:43:49;;;;;;;34.85;16.00;;;0.90;99.90;;;;;;4941229;28;20088;-81
2024/01/15 00:46:15;;;;;;;31.20;14.77;;;0.90;99.90;;;;;;4942960;28;20490;-80
2024/01/15 00:48:40;;;;;;;40.88;15.70;;;0.90;99.90;;;;;;4928975;28;20090;-81
2024/01/15 00:51:06;;;;;;;33.92;15.65;;;0.80;99.90;;;;;;4936734;28;20039;-80
2024/01/15 00:53:31;;;;;;;44.85;20.02;;;0.90;99.90;;;;;;4930550;28;20035;-80
2024/01/15 00:55:57;;;;;;;52.22;21.13;;;0.90;99.90;;;;;;4955759;28;20031;-80
2024/01/15 00:58:22;;;;;;;31.08;15.13;;;0.90;99.90;;;;;;4943160;28;20046;-80
2024/01/15 01:00:48;;;;;;;53.33;23.77;;;0.90;99.90;;;;;;4939490;28;20081;-80
2024/01/15 01:03:13;;;;;;;37.85;18.40;;;0.90;99.90;;;;;;4929053;28;20035;-80
2024/01/15 01:05:39;;;;;;;52.28;26.10;;;0.90;99.90;;;;;;4944358;28;20034;-80
2024/01/15 01:08:05;;;;;;;17.52;6.43;;;0.90;99.90;;;;;;4961486;28;20485;-80
2024/01/15 01:10:30;;;;;;;42.38;19.00;;;0.90;99.90;;;;;;4907030;29;20062;-80
2024/01/15 01:12:56;;;;;;;38.83;17.92;;;0.90;99.90;;;;;;4907923;28;20041;-80
2024/01/15 01:15:22;;;;;;;28.77;10.75;;;0.90;99.90;;;;;;4946968;28;20035;-80
2024/01/15 01:17:47;;;;;;;45.55;21.60;;;0.90;99.90;;;;;;4940836;28;20708;-80
2024/01/15 01:20:15;;;;;;;22.42;10.93;;;0.90;99.90;;;;;;4957800;28;20051;-80
2024/01/15 01:22:40;;;;;;;36.63;16.17;;;0.90;99.90;;;;;;4919099;28;20441;-80
2024/01/15 01:25:06;;;;;;;23.13;12.45;;;0.90;99.90;;;;;;4944673;28;20070;-79
2024/01/15 01:27:32;;;;;;;25.60;12.23;;;0.90;99.90;;;;;;4921362;28;20062;-80
2024/01/15 01:29:57;;;;;;;31.38;12.48;;;0.90;99.90;;;;;;4945209;28;20088;-81
2024/01/15 01:32:23;;;;;;;36.30;19.23;;;0.90;99.90;;;;;;4944537;28;20038;-81
2024/01/15 01:34:49;;;;;;;44.80;20.25;;;0.90;99.90;;;;;;4947923;28;20038;-81
2024/01/15 01:37:14;;;;;;;50.15;21.40;;;0.90;99.90;;;;;;4943634;28;20382;-80
2024/01/15 01:39:43;;;;;;;39.10;18.25;;;1.00;99.90;;;;;;4955299;28;20032;-80
2024/01/15 01:42:09;;;;;;;38.50;16.38;;;1.00;99.90;;;;;;4931438;28;20057;-80
2024/01/15 01:44:35;;;;;;;42.72;19.95;;;0.90;99.90;;;;;;4932094;28;20031;-79
2024/01/15 01:47:00;;;;;;;20.33;9.82;;;0.90;99.90;;;;;;4958750;28;20109;-79
2024/01/15 01:49:29;;;;;;;34.45;16.35;;;0.90;99.90;;;;;;4958944;28;20113;-79
2024/01/15 01:51:59;;;;;;;46.92;20.25;;;1.00;99.90;;;;;;4944008;28;20054;-78
2024/01/15 01:54:26;;;;;;;30.73;12.27;;;1.00;99.90;;;;;;4945880;28;20039;-79
2024/01/15 01:56:51;;;;;;;35.10;14.38;;;0.90;99.90;;;;;;4958232;28;20031;-80
2024/01/15 01:59:17;;;;;;;34.28;18.10;;;0.90;99.90;;;;;;4962678;28;20047;-79
2024/01/15 02:01:43;;;;;;;30.65;14.63;;;0.90;99.90;;;;;;4959940;28;20036;-81
2024/01/15 02:04:08;;;;;;;40.13;19.45;;;1.00;99.90;;;;;;4931756;28;20517;-80
2024/01/15 02:06:34;;;;;;;35.28;16.33;;;0.90;99.90;;;;;;4947685;28;20396;-80
2024/01/15 02:09:00;;;;;;;31.15;15.13;;;1.00;99.90;;;;;;4941663;28;20035;-80
2024/01/15 02:11:26;;;;;;;44.25;21.40;;;0.90;99.90;;;;;;4939152;28;20035;-81
2024/01/15 02:13:51;;;;;;;39.25;15.00;;;0.90;99.90;;;;;;4944110;28;20516;-81
2024/01/15 02:16:17;;;;;;;29.38;12.82;;;0.90;99.90;;;;;;4944999;28;20031;-81
2024/01/15 02:18:43;;;;;;;36.70;16.52;;;0.90;99.90;;;;;;4956627;28;20027;-81
2024/01/15 02:21:09;;;;;;;25.52;12.90;;;0.90;99.90;;;;;;4943365;28;20098;-80
2024/01/15 02:23:35;;;;;;;40.05;19.52;;;0.90;99.90;;;;;;4946242;28;20054;-81
2024/01/15 02:26:00;;;;;;;37.92;16.58;;;0.90;99.90;;;;;;4931555;28;20031;-80
2024/01/15 02:28:26;;;;;;;36.95;14.82;;;0.90;99.90;;;;;;4936613;28;20035;-81
2024/01/15 02:30:51;;;;;;;29.02;14.43;;;0.90;99.90;;;;;;4940082;28;20031;-80
2024/01/15 02:33:17;;;;;;;27.30;12.68;;;0.90;99.90;;;;;;4958816;28;20092;-81
2024/01/15 02:35:43;;;;;;;49.85;19.63;;;1.00;99.90;;;;;;4945672;28;20031;-81
2024/01/15 02:38:08;;;;;;;25.42;12.65;;;0.90;99.90;;;;;;4958359;28;20038;-81
2024/01/15 02:40:34;;;;;;;39.58;18.42;;;1.00;99.90;;;;;;4931121;28;20511;-81
2024/01/15 02:43:00;;;;;;;32.42;17.23;;;1.00;99.90;;;;;;4947732;28;20046;-81
2024/01/15 02:45:25;;;;;;;24.10;11.13;;;0.90;99.90;;;;;;4947164;28;20062;-80
2024/01/15 02:47:51;;;;;;;36.42;13.85;;;1.00;99.90;;;;;;4959152;28;20019;-81
2024/01/15 02:50:16;;;;;;;21.52;10.98;;;1.00;99.90;;;;;;4956680;28;20031;-80
2024/01/15 02:52:42;;;;;;;32.97;17.65;;;1.00;99.90;;;;;;4943140;28;20031;-80
2024/01/15 02:55:08;;;;;;;32.85;15.68;;;0.90;99.90;;;;;;4945557;28;20043;-80
2024/01/15 02:57:33;;;;;;;24.70;10.90;;;0.90;99.90;;;;;;4928704;28;20050;-80
2024/01/15 02:59:59;;;;;;;18.35;8.90;;;1.00;99.90;;;;;;4942811;28;20469;-80
2024/01/15 03:02:24;;;;;;;32.35;14.50;;;0.90;99.90;;;;;;4946930;28;20067;-80
2024/01/15 03:04:50;;;;;;;10.18;6.25;;;1.00;99.90;;;;;;4955633;28;20142;-80
2024/01/15 03:07:16;;;;;;;33.05;12.43;;;0.90;99.90;;;;;;4957921;28;20456;-80
2024/01/15 03:09:41;;;;;;;28.70;13.25;;;0.90;99.90;;;;;;4945785;28;20555;-80
2024/01/15 03:12:07;;;;;;;24.63;11.95;;;1.00;99.90;;;;;;4947010;28;20073;-80
2024/01/15 03:14:32;;;;;;;25.50;11.50;;;0.90;99.90;;;;;;4930593;28;20110;-80
2024/01/15 03:16:58;;;;;;;31.90;15.63;;;1.00;99.90;;;;;;4954358;28;20520;-80
2024/01/15 03:19:24;;;;;;;38.28;17.70;;;1.00;99.90;;;;;;4960179;28;20039;-81
2024/01/15 03:21:49;;;;;;;24.88;9.60;;;1.00;99.90;;;;;;4955623;28;20114;-80
2024/01/15 03:24:15;;;;;;;37.03;19.75;;;0.90;99.90;;;;;;4954578;28;20057;-81
2024/01/15 03:26:40;;;;;;;27.70;13.18;;;1.00;99.90;;;;;;4928125;28;20454;-80
2024/01/15 03:29:07;;;;;;;24.30;11.88;;;1.00;99.90;;;;;;4929704;28;20039;-81
2024/01/15 03:31:32;;;;;;;18.98;8.68;;;1.00;99.90;;;;;;4947566;28;20065;-79
2024/01/15 03:33:58;;;;;;;33.72;13.02;;;1.00;99.90;;;;;;4942239;28;20070;-79
2024/01/15 03:36:23;;;;;;;32.70;18.20;;;1.00;99.90;;;;;;4944210;28;20039;-79
2024/01/15 03:38:49;;;;;;;24.00;12.27;;;1.00;99.90;;;;;;4944928;28;20043;-79
2024/01/15 03:41:14;;;;;;;30.73;14.63;;;1.00;99.90;;;;;;4930512;28;20062;-80
2024/01/15 03:43:43;;;;;;;22.65;11.10;;;1.00;99.90;;;;;;4927231;28;20026;-79
2024/01/15 03:46:08;;;;;;;30.33;14.18;;;0.90;99.90;;;;;;4959404;28;20524;-80
2024/01/15 03:48:34;;;;;;;11.30;5.72;;;0.90;99.90;;;;;;4944808;28;20058;-80
2024/01/15 03:50:59;;;;;;;34.05;15.35;;;1.00;99.90;;;;;;4939203;28;20077;-79
2024/01/15 03:53:25;;;;;;;36.22;19.65;;;1.00;99.90;;;;;;4939935;28;20402;-80
2024/01/15 03:55:50;;;;;;;32.92;14.02;;;1.00;99.90;;;;;;4945960;28;20531;-79
2024/01/15 03:58:16;;;;;;;38.63;20.95;;;1.00;99.90;;;;;;4955263;28;20058;-79
2024/01/15 04:00:42;;;;;;;24.55;11.38;;;0.90;99.90;;;;;;4957497;28;20043;-80
2024/01/15 04:03:08;;;;;;;30.88;12.57;;;1.00;99.90;;;;;;4944950;28;20034;-80
2024/01/15 04:05:34;;;;;;;27.75;14.02;;;1.00;99.90;;;;;;4925197;28;20038;-80
2024/01/15 04:08:00;;;;;;;17.95;9.93;;;1.10;99.90;;;;;;4944684;28;20043;-80
2024/01/15 04:10:25;;;;;;;33.22;17.05;;;1.00;99.90;;;;;;4926717;28;20039;-80
2024/01/15 04:12:51;;;;;;;24.23;11.52;;;1.10;99.90;;;;;;4934476;28;20125;-80
2024/01/15 04:15:19;;;;;;;26.13;13.57;;;1.10;99.90;;;;;;4957628;28;20062;-79
2024/01/15 04:17:45;;;;;;;37.17;19.27;;;1.00;99.90;;;;;;4942160;28;20082;-79
2024/01/15 04:20:11;;;;;;;12.18;8.20;;;1.00;99.90;;;;;;4937433;28;21406;-80
2024/01/15 04:22:36;;;;;;;17.45;8.82;;;1.10;99.90;;;;;;4927996;28;20038;-79
2024/01/15 04:25:02;;;;;;;33.75;14.75;;;1.00;99.90;;;;;;4943230;28;20501;-79
2024/01/15 04:27:28;;;;;;;47.42;20.95;;;1.00;99.90;;;;;;4942078;28;20228;-79
2024/01/15 04:29:53;;;;;;;30.25;11.73;;;1.00;99.90;;;;;;4930132;28;20039;-79
2024/01/15 04:32:19;;;;;;;17.65;9.60;;;1.00;99.90;;;;;;4943628;28;20041;-79
2024/01/15 04:34:45;;;;;;;18.10;9.48;;;1.00;99.90;;;;;;4946711;28;20135;-79
2024/01/15 04:37:10;;;;;;;26.77;12.85;;;1.00;99.90;;;;;;4947051;28;20034;-79
2024/01/15 04:39:36;;;;;;;30.13;12.25;;;1.00;99.90;;;;;;4931525;28;20031;-79
2024/01/15 04:42:01;;;;;;;22.73;11.77;;;1.00;99.90;;;;;;4960495;28;20031;-79
2024/01/15 04:44:27;;;;;;;14.60;8.43;;;1.00;99.90;;;;;;4963365;28;20034;-79
2024/01/15 04:46:52;;;;;;;26.77;14.00;;;1.00;99.90;;;;;;4948650;28;20583;-79
2024/01/15 04:49:18;;;;;;;21.95;11.00;;;1.00;99.90;;;;;;4965926;28;20053;-80
2024/01/15 04:51:44;;;;;;;12.63;7.88;;;1.00;99.90;;;;;;4963531;28;20387;-79
2024/01/15 04:54:09;;;;;;;35.25;17.83;;;1.10;99.90;;;;;;4965374;28;20045;-80
2024/01/15 04:56:35;;;;;;;20.38;8.77;;;1.10;99.90;;;;;;4963401;28;20378;-79
2024/01/15 04:59:00;;;;;;;18.10;9.85;;;1.10;99.90;;;;;;4933982;28;21098;-80
2024/01/15 05:01:30;;;;;;;14.55;8.07;;;1.10;99.90;;;;;;4947887;28;20031;-80
2024/01/15 05:03:56;;;;;;;17.63;11.68;;;1.10;99.90;;;;;;4949463;28;20501;-80
2024/01/15 05:06:21;;;;;;;16.40;7.20;;;1.10;99.90;;;;;;4950259;28;20051;-80
2024/01/15 05:08:47;;;;;;;27.23;11.73;;;1.10;99.90;;;;;;4962442;28;20067;-79
2024/01/15 05:11:12;;;;;;;17.33;7.03;;;1.10;99.90;;;;;;4945702;28;20035;-80
2024/01/15 05:13:38;;;;;;;21.70;11.05;;;1.10;99.90;;;;;;4952225;28;20023;-80
2024/01/15 05:16:04;;;;;;;15.02;9.93;;;1.20;99.90;;;;;;4958669;28;20055;-79
2024/01/15 05:18:29;;;;;;;15.50;8.25;;;1.10;99.90;;;;;;4934680;28;20041;-79
2024/01/15 05:20:55;;;;;;;28.67;11.55;;;1.10;99.90;;;;;;4962445;28;20035;-79
2024/01/15 05:23:20;;;;;;;16.05;8.48;;;1.10;99.90;;;;;;4962309;28;20070;-79
2024/01/15 05:25:46;;;;;;;18.52;8.18;;;1.00;99.90;;;;;;4948429;28;21253;-80
2024/01/15 05:28:11;;;;;;;26.30;14.63;;;1.10;99.90;;;;;;4939889;28;20070;-79
2024/01/15 05:30:37;;;;;;;28.05;13.73;;;1.00;99.90;;;;;;4933589;28;20074;-80
2024/01/15 05:33:03;;;;;;;22.13;13.55;;;1.10;99.90;;;;;;4946907;28;20086;-80
2024/01/15 05:35:30;;;;;;;24.13;12.18;;;1.10;99.90;;;;;;4948604;28;20453;-80
2024/01/15 05:37:55;;;;;;;24.95;8.48;;;1.10;99.90;;;;;;4948086;28;20038;-79
2024/01/15 05:40:21;;;;;;;29.30;14.20;;;1.10;99.90;;;;;;4948308;28;20476;-80
2024/01/15 05:42:46;;;;;;;21.08;11.00;;;1.10;99.90;;;;;;4932927;28;20038;-80
2024/01/15 05:45:12;;;;;;;22.17;12.23;;;1.00;99.90;;;;;;4957984;28;20063;-80
2024/01/15 05:47:37;;;;;;;14.55;8.45;;;1.00;99.90;;;;;;4964442;28;20039;-80
2024/01/15 05:50:03;;;;;;;17.75;7.22;;;1.10;99.90;;;;;;4946974;28;20027;-80
2024/01/15 05:52:29;;;;;;;34.42;14.82;;;1.10;99.90;;;;;;4962334;28;20576;-80
2024/01/15 05:54:54;;;;;;;21.35;9.50;;;1.10;99.90;;;;;;4961529;28;20125;-79
2024/01/15 05:57:20;;;;;;;17.05;10.00;;;1.10;99.90;;;;;;4959944;28;20644;-80
2024/01/15 05:59:45;;;;;;;20.25;10.25;;;1.10;99.90;;;;;;4949986;28;20051;-79
2024/01/15 06:02:11;;;;;;;20.45;12.48;;;1.10;99.90;;;;;;4963511;28;20035;-80
2024/01/15 06:04:37;;;;;;;25.98;9.35;;;1.10;99.90;;;;;;4934559;28;20035;-80
2024/01/15 06:07:02;;;;;;;14.50;8.23;;;1.10;99.90;;;;;;4950036;28;20027;-80
2024/01/15 06:09:28;;;;;;;14.40;8.02;;;1.10;99.90;;;;;;4950850;28;20069;-80
2024/01/15 06:11:54;;;;;;;14.32;8.23;;;1.10;99.90;;;;;;4945667;28;20030;-79
2024/01/15 06:14:19;;;;;;;17.80;8.88;;;1.20;99.90;;;;;;4949202;28;20766;-80
2024/01/15 06:16:45;;;;;;;20.67;9.15;;;1.10;99.90;;;;;;4947442;28;20030;-80
2024/01/15 06:19:11;;;;;;;21.23;11.75;;;1.20;99.90;;;;;;4947342;28;20071;-80
2024/01/15 06:21:36;;;;;;;22.33;11.55;;;1.10;99.90;;;;;;4959204;28;20031;-79
2024/01/15 06:24:10;;;;;;;12.10;7.40;;;1.20;99.90;;;;;;4947155;28;20134;-79
2024/01/15 06:26:41;;;;;;;29.17;11.95;;;1.10;99.90;;;;;;4947136;28;20036;-79
2024/01/15 06:29:08;;;;;;;16.52;9.77;;;1.10;99.90;;;;;;4945820;28;20603;-79
2024/01/15 06:31:34;;;;;;;23.38;12.82;;;1.20;99.90;;;;;;4946808;28;20028;-79
2024/01/15 06:33:59;;;;;;;22.50;12.00;;;1.20;99.90;;;;;;4947417;28;20508;-80
2024/01/15 06:36:25;;;;;;;13.05;7.38;;;1.20;99.90;;;;;;4946908;28;20159;-78
2024/01/15 06:38:50;;;;;;;33.78;19.60;;;1.20;99.90;;;;;;4949380;28;20028;-80
2024/01/15 06:41:16;;;;;;;26.92;14.95;;;1.20;99.90;;;;;;4962538;28;20081;-78
2024/01/15 06:43:41;;;;;;;22.40;11.20;;;1.20;99.90;;;;;;4946721;28;20949;-79
2024/01/15 06:46:07;;;;;;;23.80;9.07;;;1.20;99.90;;;;;;4945658;28;20398;-79
2024/01/15 06:48:32;;;;;;;28.20;13.68;;;1.20;99.90;;;;;;4923390;28;20481;-80
2024/01/15 06:50:58;;;;;;;25.83;14.25;;;1.20;99.90;;;;;;4931323;28;20121;-79
2024/01/15 06:53:23;;;;;;;24.45;12.15;;;1.20;99.90;;;;;;4960487;28;20114;-79
2024/01/15 06:55:51;;;;;;;22.23;9.77;;;1.20;99.90;;;;;;4931972;28;20023;-80
2024/01/15 06:58:16;;;;;;;23.27;12.45;;;1.20;99.90;;;;;;4947255;28;20035;-80
2024/01/15 07:00:42;;;;;;;25.50;10.57;;;1.20;99.90;;;;;;4946576;28;20035;-80
2024/01/15 07:03:07;;;;;;;16.42;7.80;;;1.20;99.90;;;;;;4964008;28;20082;-80
2024/01/15 07:05:33;;;;;;;15.48;8.48;;;1.20;99.90;;;;;;4961714;28;20043;-79
2024/01/15 07:07:59;;;;;;;19.98;8.80;;;1.30;99.90;;;;;;4944561;28;20453;-79
2024/01/15 07:10:24;;;;;;;14.35;9.13;;;1.20;99.90;;;;;;4960175;28;20027;-79
2024/01/15 07:12:50;;;;;;;19.13;9.52;;;1.30;99.90;;;;;;4946470;28;20143;-79
2024/01/15 07:15:15;;;;;;;16.88;9.57;;;1.20;99.90;;;;;;4947845;28;20039;-79
2024/01/15 07:17:42;;;;;;;18.38;7.95;;;1.30;99.90;;;;;;4945720;28;20070;-80
2024/01/15 07:20:15;;;;;;;14.20;6.38;;;1.30;99.90;;;;;;4959622;28;20046;-80
2024/01/15 07:22:43;;;;;;;6.95;3.10;;;1.30;99.90;;;;;;4936973;28;20049;-80
2024/01/15 07:25:08;;;;;;;13.05;5.90;;;1.30;99.90;;;;;;4959551;28;20922;-79
2024/01/15 07:27:34;;;;;;;13.80;6.78;;;1.20;99.90;;;;;;4960957;28;20030;-80
2024/01/15 07:29:59;;;;;;;12.75;5.85;;;1.20;99.90;;;;;;4947259;28;20035;-79
2024/01/15 07:32:25;;;;;;;13.38;5.35;;;1.20;99.90;;;;;;4948700;28;20030;-79
2024/01/15 07:34:51;;;;;;;9.85;5.82;;;1.30;99.90;;;;;;4945434;28;20039;-79
2024/01/15 07:37:16;;;;;;;6.43;4.13;;;1.20;99.90;;;;;;4948755;28;20114;-79
2024/01/15 07:39:42;;;;;;;6.80;5.28;;;1.20;99.90;;;;;;4960356;28;20077;-79
2024/01/15 07:42:07;;;;;;;7.80;4.40;;;1.20;99.90;;;;;;4962157;28;20117;-79
2024/01/15 07:44:33;;;;;;;9.02;4.45;;;1.20;99.90;;;;;;4945193;28;20048;-79
2024/01/15 07:46:59;;;;;;;8.23;5.40;;;1.20;99.90;;;;;;4944084;28;20042;-78
2024/01/15 07:49:25;;;;;;;7.85;3.63;;;1.30;99.90;;;;;;4921455;28;20106;-79
2024/01/15 07:51:51;;;;;;;10.00;6.82;;;1.20;99.90;;;;;;4925743;28;20481;-79
2024/01/15 07:54:16;;;;;;;8.55;4.53;;;1.30;99.90;;;;;;4958965;28;20026;-80
2024/01/15 07:56:56;;;;;;;9.57;5.32;;;1.30;99.90;;;;;;4962986;28;20042;-79
2024/01/15 07:59:22;;;;;;;10.70;5.32;;;1.30;99.90;;;;;;4931373;28;20035;-79
2024/01/15 08:01:47;;;;;;;14.98;9.13;;;1.30;99.90;;;;;;4955836;28;20074;-79
2024/01/15 08:04:13;;;;;;;18.25;8.25;;;1.30;99.90;;;;;;4945747;28;20114;-80
2024/01/15 08:06:40;;;;;;;16.05;8.90;;;1.20;99.90;;;;;;4960121;28;20106;-80
2024/01/15 08:09:05;;;;;;;9.20;4.70;;;1.20;99.90;;;;;;4919183;28;20168;-80
2024/01/15 08:11:31;;;;;;;13.35;4.80;;;1.10;99.90;;;;;;4952772;28;20039;-80
2024/01/15 08:13:57;;;;;;;17.80;10.18;;;1.10;99.90;;;;;;4961163;28;20026;-79
2024/01/15 08:16:24;;;;;;;20.00;10.02;;;1.10;99.90;;;;;;4943086;28;20033;-80
2024/01/15 08:18:50;;;;;;;16.58;8.02;;;1.10;99.90;;;;;;4947106;28;20027;-79
2024/01/15 08:21:16;;;;;;;15.43;7.90;;;1.00;99.90;;;;;;4926548;28;20045;-79
2024/01/15 08:23:41;;;;;;;15.30;9.45;;;1.00;99.90;;;;;;4945176;28;20035;-80
2024/01/15 08:26:08;;;;;;;18.40;9.82;;;1.00;99.90;;;;;;4945872;28;20039;-79
2024/01/15 08:28:34;;;;;;;12.73;7.97;;;1.00;99.90;;;;;;4947283;28;20500;-82
2024/01/15 08:30:59;;;;;;;11.13;6.28;;;1.00;99.90;;;;;;4947058;28;20058;-83
2024/01/15 08:33:28;;;;;;;14.13;8.18;;;1.00;99.90;;;;;;4946013;28;20032;-83
2024/01/15 08:35:56;;;;;;;25.30;13.43;;;1.00;99.90;;;;;;4941913;28;20059;-82
2024/01/15 08:38:22;;;;;;;15.88;8.70;;;1.00;99.90;;;;;;4961082;28;20081;-82
2024/01/15 08:40:48;;;;;;;14.65;7.70;;;1.00;99.90;;;;;;4947720;28;20069;-81
2024/01/15 08:43:14;;;;;;;11.70;6.72;;;1.00;99.90;;;;;;4944004;28;20031;-82
2024/01/15 08:45:40;;;;;;;12.57;6.47;;;1.00;99.90;;;;;;4945338;28;20737;-82
2024/01/15 08:48:06;;;;;;;16.60;10.30;;;1.00;99.90;;;;;;4960281;28;20062;-82
2024/01/15 08:50:32;;;;;;;11.20;6.38;;;1.00;99.90;;;;;;4945134;28;20042;-81
2024/01/15 08:52:58;;;;;;;16.88;10.35;;;1.00;99.90;;;;;;4961994;28;20039;-81
2024/01/15 08:55:23;;;;;;;16.58;9.02;;;1.00;99.90;;;;;;4917300;28;20042;-81
2024/01/15 08:57:49;;;;;;;23.25;15.73;;;1.00;99.90;;;;;;4957867;28;20955;-82
2024/01/15 09:00:15;;;;;;;16.42;11.88;;;1.00;99.90;;;;;;4958660;28;20549;-82
2024/01/15 09:02:41;;;;;;;16.30;9.95;;;1.00;99.90;;;;;;4959598;28;20126;-81
2024/01/15 09:05:07;;;;;;;13.20;8.80;;;1.00;99.90;;;;;;4946341;28;20055;-81
2024/01/15 09:07:33;;;;;;;15.38;9.07;;;1.00;99.90;;;;;;4957385;28;20477;-81
2024/01/15 09:09:59;;;;;;;26.95;9.45;;;1.00;99.90;;;;;;4946853;28;20039;-81
2024/01/15 09:12:28;;;;;;;19.13;9.27;;;0.90;99.90;;;;;;4944200;28;20031;-81
2024/01/15 09:14:55;;;;;;;12.02;7.47;;;0.90;99.90;;;;;;4945649;28;20043;-81
2024/01/15 09:17:23;;;;;;;11.30;5.03;;;0.90;99.90;;;;;;4959554;28;20110;-81
2024/01/15 09:19:50;;;;;;;14.73;7.07;;;0.90;99.90;;;;;;4948879;28;20709;-81
2024/01/15 09:22:18;;;;;;;6.40;4.20;;;0.90;99.90;;;;;;4929909;28;20042;-81
2024/01/15 09:24:47;;;;;;;12.43;7.13;;;0.80;99.90;;;;;;4931065;28;20039;-81
2024/01/15 09:27:13;;;;;;;9.82;6.90;;;0.90;99.90;;;;;;4933433;28;20049;-80
2024/01/15 09:29:40;;;;;;;10.95;6.97;;;0.80;99.90;;;;;;4951516;28;20042;-78
2024/01/15 09:32:07;;;;;;;7.55;5.00;;;0.90;99.90;;;;;;4948835;28;20049;-81
2024/01/15 09:34:33;;;;;;;8.70;4.57;;;0.80;99.90;;;;;;4936050;28;20122;-81
2024/01/15 09:37:00;;;;;;;10.95;6.55;;;0.90;99.90;;;;;;4949329;28;20065;-81
2024/01/15 09:39:26;;;;;;;10.88;5.85;;;0.80;99.90;;;;;;4947449;28;20771;-81
2024/01/15 09:41:53;;;;;;;9.90;5.15;;;0.80;99.90;;;;;;4933823;28;20037;-81
2024/01/15 09:44:19;;;;;;;13.30;6.53;;;0.80;99.90;;;;;;4948800;28;20041;-81
2024/01/15 09:46:44;;;;;;;8.05;4.72;;;0.80;99.90;;;;;;4947148;28;20038;-81
2024/01/15 09:49:10;;;;;;;6.72;4.68;;;0.80;99.90;;;;;;4947825;28;20042;-81
2024/01/15 09:51:36;;;;;;;7.30;4.38;;;0.80;99.90;;;;;;4946256;28;20042;-81
2024/01/15 09:54:02;;;;;;;12.68;5.03;;;0.90;99.90;;;;;;4936373;28;20046;-81
2024/01/15 09:56:27;;;;;;;6.15;4.82;;;0.80;99.90;;;;;;4948870;28;20118;-81
2024/01/15 09:58:57;;;;;;;4.13;3.30;;;0.70;99.90;;;;;;4960368;28;20030;-82
2024/01/15 10:01:22;;;;;;;7.43;4.22;;;0.80;99.90;;;;;;4950502;28;20026;-81
2024/01/15 10:03:48;;;;;;;12.35;4.55;;;0.80;99.90;;;;;;4933070;28;20030;-82
2024/01/15 10:06:18;;;;;;;12.32;5.13;;;0.80;99.90;;;;;;4943524;28;20023;-81
2024/01/15 10:08:48;;;;;;;12.77;5.28;;;0.80;99.90;;;;;;4950606;28;20031;-81
2024/01/15 10:11:14;;;;;;;7.28;4.82;;;0.80;99.90;;;;;;4965345;28;20039;-80
2024/01/15 10:13:40;;;;;;;6.70;3.88;;;0.80;99.90;;;;;;4942217;28;20572;-81
2024/01/15 10:16:06;;;;;;;6.88;2.65;;;0.80;99.90;;;;;;4913090;28;20401;-81
2024/01/15 10:18:32;;;;;;;6.13;4.15;;;0.90;99.90;;;;;;4947467;28;20062;-81
2024/01/15 10:20:59;;;;;;;3.63;2.15;;;0.90;99.90;;;;;;4950803;28;20555;-81
2024/01/15 10:23:24;;;;;;;6.97;4.35;;;0.90;99.90;;;;;;4948824;28;20058;-81
2024/01/15 10:25:53;;;;;;;5.30;3.03;;;0.90;99.90;;;;;;4943789;28;20401;-81
2024/01/15 10:28:19;;;;;;;6.70;4.45;;;0.90;99.90;;;;;;4944859;28;20047;-82
2024/01/15 10:30:44;;;;;;;6.80;4.63;;;0.90;99.90;;;;;;4946383;28;20105;-81
2024/01/15 10:33:11;;;;;;;4.97;3.40;;;0.90;99.90;;;;;;4961194;28;20494;-82
2024/01/15 10:35:39;;;;;;;5.93;3.05;;;0.90;99.90;;;;;;4947464;28;20564;-81
2024/01/15 10:38:05;;;;;;;5.50;3.03;;;0.90;99.90;;;;;;4938737;28;20118;-83
2024/01/15 10:40:31;;;;;;;4.60;2.63;;;0.90;99.90;;;;;;4934858;28;20527;-82
2024/01/15 10:42:57;;;;;;;3.53;2.90;;;0.90;99.90;;;;;;4947070;28;20085;-82
2024/01/15 10:45:23;;;;;;;5.38;3.78;;;0.90;99.90;;;;;;4939996;28;20035;-81
2024/01/15 10:47:48;;;;;;;7.70;4.60;;;1.00;99.90;;;;;;4946397;28;20083;-80
2024/01/15 10:50:14;;;;;;;6.38;3.42;;;0.90;99.90;;;;;;4943906;28;20378;-81
2024/01/15 10:52:40;;;;;;;6.00;3.38;;;1.00;99.90;;;;;;4947193;28;20045;-82
2024/01/15 10:55:28;;;;;;;5.13;2.30;;;1.00;99.90;;;;;;4949882;28;20035;-82
2024/01/15 10:57:56;;;;;;;3.50;2.00;;;1.00;99.90;;;;;;4953991;28;20041;-81
2024/01/15 11:00:21;;;;;;;7.03;4.25;;;0.90;99.90;;;;;;4943341;28;20485;-79
2024/01/15 11:02:47;;;;;;;6.25;3.50;;;1.00;99.90;;;;;;4948881;28;20035;-81
2024/01/15 11:05:13;;;;;;;4.88;2.92;;;0.90;99.90;;;;;;4940905;28;20038;-84
2024/01/15 11:07:39;;;;;;;4.88;2.15;;;1.00;99.90;;;;;;4958176;28;20035;-83
2024/01/15 11:10:05;;;;;;;5.35;3.45;;;1.00;99.90;;;;;;4948877;28;20107;-83
2024/01/15 11:12:31;;;;;;;8.07;2.45;;;1.00;99.90;;;;;;4958897;28;20038;-84
2024/01/15 11:15:09;;;;;;;5.68;2.75;;;1.10;99.90;;;;;;4948724;28;20039;-84
2024/01/15 11:18:05;;;;;;;5.47;3.28;;;1.10;99.90;;;;;;4947364;28;20354;-83
2024/01/15 11:20:32;;;;;;;6.78;3.13;;;1.10;99.90;;;;;;4934553;28;20089;-85
2024/01/15 11:22:59;;;;;;;2.90;1.52;;;1.20;99.90;;;;;;4948398;28;20127;-84
2024/01/15 11:25:24;;;;;;;2.95;2.40;;;1.20;99.90;;;;;;4944104;28;20441;-85
2024/01/15 11:27:51;;;;;;;5.60;3.40;;;1.20;99.90;;;;;;4940559;28;20042;-85
2024/01/15 11:30:17;;;;;;;5.72;3.03;;;1.20;99.90;;;;;;4928568;28;20038;-85
2024/01/15 11:32:50;;;;;;;4.43;2.53;;;1.30;99.90;;;;;;4950847;28;20035;-83
2024/01/15 11:35:16;;;;;;;8.20;4.15;;;1.20;99.90;;;;;;4933055;28;20035;-82
2024/01/15 11:37:56;;;;;;;4.03;2.15;;;1.20;99.90;;;;;;4948468;28;20035;-83
2024/01/15 11:40:35;;;;;;;3.25;2.15;;;1.30;99.90;;;;;;4959780;28;20521;-83
2024/01/15 11:43:01;;;;;;;6.28;2.55;;;1.30;99.90;;;;;;4956885;28;20501;-83
2024/01/15 11:45:27;;;;;;;5.00;2.55;;;1.40;99.90;;;;;;4942843;28;20041;-83
2024/01/15 11:48:15;;;;;;;4.45;2.50;;;1.40;99.90;;;;;;4942511;28;20067;-82
2024/01/15 11:50:42;;;;;;;6.53;2.88;;;1.50;99.90;;;;;;4956265;28;20034;-82
2024/01/15 11:53:34;;;;;;;5.13;2.78;;;1.40;99.90;;;;;;4957502;28;20181;-83
2024/01/15 11:55:59;;;;;;;5.80;3.53;;;1.50;99.90;;;;;;4941717;28;20070;-84
2024/01/15 11:58:25;;;;;;;3.55;3.10;;;1.40;99.90;;;;;;4945277;28;20062;-83
2024/01/15 12:00:52;;;;;;;11.00;5.75;;;1.40;99.90;;;;;;4271987;28;10000573;-82
2024/01/15 12:03:20;;;;;;;4.22;2.90;;;1.40;99.90;;;;;;4940798;28;20023;-83
2024/01/15 12:05:45;;;;;;;6.03;3.42;;;1.40;99.90;;;;;;4942440;28;20126;-83
2024/01/15 12:08:11;;;;;;;8.75;4.93;;;1.50;99.90;;;;;;4954291;28;20122;-83
2024/01/15 12:10:40;;;;;;;8.20;3.83;;;1.50;99.90;;;;;;4929876;28;20026;-83
2024/01/15 12:13:13;;;;;;;7.85;3.55;;;1.50;99.90;;;;;;4947954;28;20114;-81
2024/01/15 12:15:41;;;;;;;3.78;2.78;;;1.50;99.90;;;;;;4941377;28;20603;-83
2024/01/15 12:18:07;;;;;;;7.10;3.42;;;1.50;99.90;;;;;;4956013;28;20039;-82
2024/01/15 12:20:33;;;;;;;7.38;3.63;;;1.40;99.90;;;;;;4958163;28;20113;-82
2024/01/15 12:22:59;;;;;;;7.95;2.85;;;1.50;99.90;;;;;;4941872;28;20058;-83
2024/01/15 12:25:26;;;;;;;4.50;2.97;;;1.40;99.90;;;;;;4943146;28;20106;-83
2024/01/15 12:27:52;;;;;;;5.43;2.83;;;1.50;99.90;;;;;;4945883;28;20031;-83
2024/01/15 12:30:18;;;;;;;8.63;3.45;;;1.50;99.90;;;;;;4958582;28;20030;-85
2024/01/15 12:32:44;;;;;;;4.45;2.92;;;1.60;99.90;;;;;;4943442;28;20523;-82
2024/01/15 12:35:12;;;;;;;5.93;3.53;;;1.70;99.90;;;;;;4957473;28;20045;-82
2024/01/15 12:37:39;;;;;;;3.60;1.88;;;1.70;99.90;;;;;;4943418;28;20070;-82
2024/01/15 12:40:07;;;;;;;2.63;1.08;;;1.90;99.90;;;;;;4944892;28;20050;-82